Terminal Aerodrome Forecast
Issued by NWS

Current Version | Previous Version | Text Only | Print | Product List | Glossary On
Versions: 1 2 3 4 5 6 7 8 9 10 11 12 13
186
FTUS46 KMTR 242347
TAFOAK
TAF
KOAK 242347Z 2500/2606 30015KT P6SM FEW010
      TEMPO 2505/2509 BKN009
     FM250900 26005KT P6SM OVC007
     FM251800 30010KT P6SM SCT010
     FM252000 30014G19KT P6SM FEW010
     FM260300 28012KT P6SM FEW010=

USA.gov is the U.S. government's official web portal to all federal, state and local government web resources and services.